sensor_id;sensor_type;location;lat;lon;timestamp;pressure;altitude;pressure_sealevel;temperature;humidity
4398;BME280;2213;49.720;7.296;2023-02-03T00:00:42;99316.31;;;7.63;100.00
4398;BME280;2213;49.720;7.296;2023-02-03T00:03:12;99322.34;;;7.63;100.00
4398;BME280;2213;49.720;7.296;2023-02-03T00:05:42;99320.41;;;7.65;100.00
4398;BME280;2213;49.720;7.296;2023-02-03T00:08:14;99317.25;;;7.62;100.00
4398;BME280;2213;49.720;7.296;2023-02-03T00:10:46;99320.81;;;7.60;100.00
4398;BME280;2213;49.720;7.296;2023-02-03T00:13:16;99317.25;;;7.62;100.00
4398;BME280;2213;49.720;7.296;2023-02-03T00:15:45;99318.91;;;7.63;100.00
4398;BME280;2213;49.720;7.296;2023-02-03T00:18:14;99312.06;;;7.62;100.00
4398;BME280;2213;49.720;7.296;2023-02-03T00:20:46;99307.78;;;7.60;100.00
4398;BME280;2213;49.720;7.296;2023-02-03T00:23:15;99303.56;;;7.59;100.00
4398;BME280;2213;49.720;7.296;2023-02-03T00:25:47;99291.22;;;7.62;100.00
4398;BME280;2213;49.720;7.296;2023-02-03T00:28:18;99279.16;;;7.60;100.00
4398;BME280;2213;49.720;7.296;2023-02-03T00:30:48;99294.22;;;7.57;100.00
4398;BME280;2213;49.720;7.296;2023-02-03T00:33:21;99301.63;;;7.62;100.00
4398;BME280;2213;49.720;7.296;2023-02-03T00:35:51;99310.41;;;7.60;100.00
4398;BME280;2213;49.720;7.296;2023-02-03T00:38:20;99301.63;;;7.62;100.00
4398;BME280;2213;49.720;7.296;2023-02-03T00:40:53;99304.25;;;7.62;100.00
4398;BME280;2213;49.720;7.296;2023-02-03T00:43:23;99292.88;;;7.63;100.00
4398;BME280;2213;49.720;7.296;2023-02-03T00:45:52;99290.13;;;7.64;100.00
4398;BME280;2213;49.720;7.296;2023-02-03T00:48:22;99287.97;;;7.59;100.00
4398;BME280;2213;49.720;7.296;2023-02-03T00:50:52;99297.25;;;7.62;100.00
4398;BME280;2213;49.720;7.296;2023-02-03T00:53:21;99297.09;;;7.64;100.00
4398;BME280;2213;49.720;7.296;2023-02-03T00:55:52;99306.84;;;7.62;100.00
4398;BME280;2213;49.720;7.296;2023-02-03T00:58:22;99304.25;;;7.62;100.00
4398;BME280;2213;49.720;7.296;2023-02-03T01:00:54;99301.63;;;7.62;100.00
4398;BME280;2213;49.720;7.296;2023-02-03T01:03:25;99281.66;;;7.62;100.00
4398;BME280;2213;49.720;7.296;2023-02-03T01:05:55;99279.16;;;7.60;100.00
4398;BME280;2213;49.720;7.296;2023-02-03T01:08:24;99283.81;;;7.57;100.00
4398;BME280;2213;49.720;7.296;2023-02-03T01:10:55;99281.78;;;7.60;100.00
4398;BME280;2213;49.720;7.296;2023-02-03T01:13:24;99269.75;;;7.59;100.00
4398;BME280;2213;49.720;7.296;2023-02-03T01:15:54;99254.13;;;7.59;100.00
4398;BME280;2213;49.720;7.296;2023-02-03T01:18:24;99248.75;;;7.61;100.00
4398;BME280;2213;49.720;7.296;2023-02-03T01:20:54;99230.69;;;7.59;100.00
4398;BME280;2213;49.720;7.296;2023-02-03T01:23:24;99224.13;;;7.55;100.00
4398;BME280;2213;49.720;7.296;2023-02-03T01:25:55;99218.50;;;7.60;100.00
4398;BME280;2213;49.720;7.296;2023-02-03T01:28:24;99217.41;;;7.53;100.00
4398;BME280;2213;49.720;7.296;2023-02-03T01:30:54;99207.69;;;7.55;100.00
4398;BME280;2213;49.720;7.296;2023-02-03T01:33:25;99221.63;;;7.54;100.00
4398;BME280;2213;49.720;7.296;2023-02-03T01:35:55;99221.63;;;7.54;100.00
4398;BME280;2213;49.720;7.296;2023-02-03T01:38:27;99220.03;;;7.53;100.00
4398;BME280;2213;49.720;7.296;2023-02-03T01:40:59;99213.84;;;7.54;100.00
4398;BME280;2213;49.720;7.296;2023-02-03T01:43:31;99219.59;;;7.57;100.00
4398;BME280;2213;49.720;7.296;2023-02-03T01:46:06;99220.41;;;7.58;100.00
4398;BME280;2213;49.720;7.296;2023-02-03T01:48:42;99206.28;;;7.60;100.00
4398;BME280;2213;49.720;7.296;2023-02-03T01:51:12;99209.03;;;7.59;100.00
4398;BME280;2213;49.720;7.296;2023-02-03T01:53:44;99199.47;;;7.59;100.00
4398;BME280;2213;49.720;7.296;2023-02-03T01:56:16;99192.47;;;7.50;100.00
4398;BME280;2213;49.720;7.296;2023-02-03T01:58:47;99204.41;;;7.53;100.00
4398;BME280;2213;49.720;7.296;2023-02-03T02:01:19;99202.47;;;7.55;100.00
4398;BME280;2213;49.720;7.296;2023-02-03T02:03:52;99220.69;;;7.55;100.00
4398;BME280;2213;49.720;7.296;2023-02-03T02:06:25;99202.59;;;7.53;100.00
4398;BME280;2213;49.720;7.296;2023-02-03T02:08:56;99207.81;;;7.53;100.00
4398;BME280;2213;49.720;7.296;2023-02-03T02:11:28;99198.38;;;7.52;100.00
4398;BME280;2213;49.720;7.296;2023-02-03T02:14:01;99188.25;;;7.49;100.00
4398;BME280;2213;49.720;7.296;2023-02-03T02:16:44;99191.50;;;7.51;100.00
4398;BME280;2213;49.720;7.296;2023-02-03T02:20:06;99183.44;;;7.54;100.00
4398;BME280;2213;49.720;7.296;2023-02-03T02:23:08;99200.28;;;7.50;100.00
4398;BME280;2213;49.720;7.296;2023-02-03T02:33:03;99190.84;;;7.49;100.00
4398;BME280;2213;49.720;7.296;2023-02-03T02:35:49;99191.50;;;7.51;100.00
4398;BME280;2213;49.720;7.296;2023-02-03T02:38:36;99194.13;;;7.51;100.00
4398;BME280;2213;49.720;7.296;2023-02-03T02:41:16;99212.22;;;7.53;100.00
4398;BME280;2213;49.720;7.296;2023-02-03T02:43:59;99225.22;;;7.53;100.00
4398;BME280;2213;49.720;7.296;2023-02-03T02:46:34;99233.16;;;7.51;100.00
4398;BME280;2213;49.720;7.296;2023-02-03T02:49:13;99219.19;;;7.52;100.00
4398;BME280;2213;49.720;7.296;2023-02-03T02:51:45;99217.25;;;7.54;100.00
4398;BME280;2213;49.720;7.296;2023-02-03T02:54:20;99217.53;;;7.51;100.00
4398;BME280;2213;49.720;7.296;2023-02-03T02:56:55;99233.56;;;7.56;100.00
4398;BME280;2213;49.720;7.296;2023-02-03T02:59:25;99224.78;;;7.57;100.00
4398;BME280;2213;49.720;7.296;2023-02-03T03:01:54;99225.78;;;7.56;100.00
4398;BME280;2213;49.720;7.296;2023-02-03T03:04:27;99225.78;;;7.56;100.00
4398;BME280;2213;49.720;7.296;2023-02-03T03:07:01;99229.31;;;7.55;100.00
4398;BME280;2213;49.720;7.296;2023-02-03T03:09:37;99244.00;;;7.56;100.00
4398;BME280;2213;49.720;7.296;2023-02-03T03:12:15;99243.00;;;7.57;100.00
4398;BME280;2213;49.720;7.296;2023-02-03T03:14:52;99248.09;;;7.59;100.00
4398;BME280;2213;49.720;7.296;2023-02-03T03:17:29;99247.38;;;7.57;100.00
4398;BME280;2213;49.720;7.296;2023-02-03T03:20:06;99248.91;;;7.59;100.00
4398;BME280;2213;49.720;7.296;2023-02-03T03:22:44;99237.25;;;7.64;100.00
4398;BME280;2213;49.720;7.296;2023-02-03T03:25:18;99232.31;;;7.60;100.00
4398;BME280;2213;49.720;7.296;2023-02-03T03:27:57;99223.56;;;7.62;100.00
4398;BME280;2213;49.720;7.296;2023-02-03T03:30:32;99213.16;;;7.62;100.00
4398;BME280;2213;49.720;7.296;2023-02-03T03:33:04;99211.78;;;7.57;100.00
4398;BME280;2213;49.720;7.296;2023-02-03T03:35:45;99203.00;;;7.58;100.00
4398;BME280;2213;49.720;7.296;2023-02-03T03:38:24;99211.66;;;7.59;100.00
4398;BME280;2213;49.720;7.296;2023-02-03T03:41:04;99224.38;;;7.62;100.00
4398;BME280;2213;49.720;7.296;2023-02-03T03:43:40;99227.94;;;7.61;100.00
4398;BME280;2213;49.720;7.296;2023-02-03T03:46:17;99206.00;;;7.64;100.00
4398;BME280;2213;49.720;7.296;2023-02-03T03:48:53;99210.25;;;7.65;100.00
4398;BME280;2213;49.720;7.296;2023-02-03T03:51:30;99215.75;;;7.62;100.00
4398;BME280;2213;49.720;7.296;2023-02-03T03:54:07;99221.91;;;7.60;100.00
4398;BME280;2213;49.720;7.296;2023-02-03T03:56:43;99219.47;;;7.59;100.00
4398;BME280;2213;49.720;7.296;2023-02-03T03:59:20;99236.19;;;7.56;100.00
4398;BME280;2213;49.720;7.296;2023-02-03T04:01:51;99254.78;;;7.62;100.00
4398;BME280;2213;49.720;7.296;2023-02-03T04:04:23;99258.06;;;7.64;100.00
4398;BME280;2213;49.720;7.296;2023-02-03T04:06:55;99258.34;;;7.60;100.00
4398;BME280;2213;49.720;7.296;2023-02-03T04:09:24;99267.69;;;7.63;100.00
4398;BME280;2213;49.720;7.296;2023-02-03T04:11:54;99262.75;;;7.60;100.00
4398;BME280;2213;49.720;7.296;2023-02-03T04:14:35;99251.50;;;7.59;100.00
4398;BME280;2213;49.720;7.296;2023-02-03T04:17:06;99240.81;;;7.63;100.00
4398;BME280;2213;49.720;7.296;2023-02-03T04:19:34;99234.78;;;7.62;100.00
4398;BME280;2213;49.720;7.296;2023-02-03T04:22:05;99228.75;;;7.62;100.00
4398;BME280;2213;49.720;7.296;2023-02-03T04:24:35;99229.88;;;7.59;100.00
4398;BME280;2213;49.720;7.296;2023-02-03T04:27:04;99230.97;;;7.56;100.00
4398;BME280;2213;49.720;7.296;2023-02-03T04:29:35;99245.47;;;7.59;100.00
4398;BME280;2213;49.720;7.296;2023-02-03T04:32:04;99255.19;;;7.57;100.00
4398;BME280;2213;49.720;7.296;2023-02-03T04:34:34;99263.81;;;7.57;100.00
4398;BME280;2213;49.720;7.296;2023-02-03T04:37:05;99261.78;;;7.61;100.00
4398;BME280;2213;49.720;7.296;2023-02-03T04:39:36;99247.94;;;7.60;100.00
4398;BME280;2213;49.720;7.296;2023-02-03T04:42:05;99260.84;;;7.52;100.00
4398;BME280;2213;49.720;7.296;2023-02-03T04:44:34;99249.59;;;7.52;100.00
4398;BME280;2213;49.720;7.296;2023-02-03T04:47:04;99240.69;;;7.54;100.00
4398;BME280;2213;49.720;7.296;2023-02-03T04:49:33;99229.59;;;7.52;100.00
4398;BME280;2213;49.720;7.296;2023-02-03T04:52:05;99231.50;;;7.50;100.00
4398;BME280;2213;49.720;7.296;2023-02-03T04:54:34;99240.13;;;7.51;100.00
4398;BME280;2213;49.720;7.296;2023-02-03T04:57:05;99237.41;;;7.52;100.00
4398;BME280;2213;49.720;7.296;2023-02-03T04:59:34;99246.84;;;7.53;100.00
4398;BME280;2213;49.720;7.296;2023-02-03T05:02:05;99232.88;;;7.54;100.00
4398;BME280;2213;49.720;7.296;2023-02-03T05:04:35;99232.06;;;7.54;100.00
4398;BME280;2213;49.720;7.296;2023-02-03T05:07:05;99209.59;;;7.53;100.00
4398;BME280;2213;49.720;7.296;2023-02-03T05:09:36;99213.16;;;7.52;100.00
4398;BME280;2213;49.720;7.296;2023-02-03T05:12:07;99213.16;;;7.52;100.00
4398;BME280;2213;49.720;7.296;2023-02-03T05:14:37;99200.00;;;7.53;100.00
4398;BME280;2213;49.720;7.296;2023-02-03T05:17:08;99200.97;;;7.52;100.00
4398;BME280;2213;49.720;7.296;2023-02-03T05:19:37;99214.66;;;7.54;100.00
4398;BME280;2213;49.720;7.296;2023-02-03T05:22:08;99215.34;;;7.56;100.00
4398;BME280;2213;49.720;7.296;2023-02-03T05:24:38;99201.38;;;7.57;100.00
4398;BME280;2213;49.720;7.296;2023-02-03T05:27:08;99200.28;;;7.60;100.00
4398;BME280;2213;49.720;7.296;2023-02-03T05:29:39;99209.88;;;7.59;100.00
4398;BME280;2213;49.720;7.296;2023-02-03T05:32:08;99197.53;;;7.62;100.00
4398;BME280;2213;49.720;7.296;2023-02-03T05:34:38;99186.84;;;7.65;100.00
4398;BME280;2213;49.720;7.296;2023-02-03T05:37:11;99179.97;;;7.64;100.00
4398;BME280;2213;49.720;7.296;2023-02-03T05:39:41;99182.72;;;7.62;100.00
4398;BME280;2213;49.720;7.296;2023-02-03T05:42:10;99179.19;;;7.63;100.00
4398;BME280;2213;49.720;7.296;2023-02-03T05:44:39;99198.91;;;7.66;100.00
4398;BME280;2213;49.720;7.296;2023-02-03T05:47:09;99196.13;;;7.67;100.00
4398;BME280;2213;49.720;7.296;2023-02-03T05:49:39;99204.78;;;7.68;100.00
4398;BME280;2213;49.720;7.296;2023-02-03T05:52:10;99188.47;;;7.66;100.00
4398;BME280;2213;49.720;7.296;2023-02-03T05:54:40;99202.88;;;7.70;100.00
4398;BME280;2213;49.720;7.296;2023-02-03T05:57:11;99198.31;;;7.72;100.00
4398;BME280;2213;49.720;7.296;2023-02-03T05:59:41;99215.72;;;7.71;100.00
4398;BME280;2213;49.720;7.296;2023-02-03T06:02:11;99203.69;;;7.70;100.00
4398;BME280;2213;49.720;7.296;2023-02-03T06:04:41;99208.19;;;7.68;100.00
4398;BME280;2213;49.720;7.296;2023-02-03T06:07:11;99201.09;;;7.70;100.00
4398;BME280;2213;49.720;7.296;2023-02-03T06:09:42;99195.59;;;7.73;100.00
4398;BME280;2213;49.720;7.296;2023-02-03T06:12:11;99190.50;;;7.72;100.00
4398;BME280;2213;49.720;7.296;2023-02-03T06:14:40;99173.78;;;7.74;100.00
4398;BME280;2213;49.720;7.296;2023-02-03T06:17:10;99186.00;;;7.74;100.00
4398;BME280;2213;49.720;7.296;2023-02-03T06:19:40;99179.16;;;7.73;100.00
4398;BME280;2213;49.720;7.296;2023-02-03T06:22:11;99182.41;;;7.75;100.00
4398;BME280;2213;49.720;7.296;2023-02-03T06:24:41;99163.53;;;7.73;100.00
4398;BME280;2213;49.720;7.296;2023-02-03T06:27:12;99164.19;;;7.75;100.00
4398;BME280;2213;49.720;7.296;2023-02-03T06:29:41;99174.47;;;7.76;100.00
4398;BME280;2213;49.720;7.296;2023-02-03T06:32:11;99177.75;;;7.78;100.00
4398;BME280;2213;49.720;7.296;2023-02-03T06:34:40;99161.59;;;7.75;100.00
4398;BME280;2213;49.720;7.296;2023-02-03T06:37:11;99159.97;;;7.74;100.00
4398;BME280;2213;49.720;7.296;2023-02-03T06:39:41;99160.94;;;7.73;100.00
4398;BME280;2213;49.720;7.296;2023-02-03T06:42:11;99170.38;;;7.74;100.00
4398;BME280;2213;49.720;7.296;2023-02-03T06:44:40;99174.59;;;7.75;100.00
4398;BME280;2213;49.720;7.296;2023-02-03T06:47:10;99173.38;;;7.79;100.00
4398;BME280;2213;49.720;7.296;2023-02-03T06:49:40;99176.13;;;7.77;100.00
4398;BME280;2213;49.720;7.296;2023-02-03T06:52:10;99169.13;;;7.78;100.00
4398;BME280;2213;49.720;7.296;2023-02-03T06:54:40;99172.72;;;7.77;100.00
4398;BME280;2213;49.720;7.296;2023-02-03T06:57:10;99179.28;;;7.81;100.00
4398;BME280;2213;49.720;7.296;2023-02-03T06:59:39;99198.28;;;7.81;100.00
4398;BME280;2213;49.720;7.296;2023-02-03T07:02:10;99214.34;;;7.77;100.00
4398;BME280;2213;49.720;7.296;2023-02-03T07:04:39;99224.63;;;7.78;100.00
4398;BME280;2213;49.720;7.296;2023-02-03T07:07:13;99215.84;;;7.79;100.00
4398;BME280;2213;49.720;7.296;2023-02-03T07:09:42;99223.53;;;7.81;100.00
4398;BME280;2213;49.720;7.296;2023-02-03T07:12:13;99229.41;;;7.83;100.00
4398;BME280;2213;49.720;7.296;2023-02-03T07:14:42;99252.03;;;7.82;100.00
4398;BME280;2213;49.720;7.296;2023-02-03T07:17:13;99240.66;;;7.83;100.00
4398;BME280;2213;49.720;7.296;2023-02-03T07:19:43;99254.25;;;7.77;100.00
4398;BME280;2213;49.720;7.296;2023-02-03T07:22:14;99252.03;;;7.82;100.00
4398;BME280;2213;49.720;7.296;2023-02-03T07:24:43;99249.56;;;7.81;100.00
4398;BME280;2213;49.720;7.296;2023-02-03T07:27:13;99261.59;;;7.82;100.00
4398;BME280;2213;49.720;7.296;2023-02-03T07:29:43;99276.28;;;7.83;100.00
4398;BME280;2213;49.720;7.296;2023-02-03T07:32:12;99276.81;;;7.86;100.00
4398;BME280;2213;49.720;7.296;2023-02-03T07:34:42;99268.06;;;7.87;100.00
4398;BME280;2213;49.720;7.296;2023-02-03T07:37:13;99269.84;;;7.87;100.00
4398;BME280;2213;49.720;7.296;2023-02-03T07:39:42;99273.13;;;7.89;100.00
4398;BME280;2213;49.720;7.296;2023-02-03T07:42:14;99256.00;;;7.86;100.00
4398;BME280;2213;49.720;7.296;2023-02-03T07:44:43;99264.47;;;7.88;100.00
4398;BME280;2213;49.720;7.296;2023-02-03T07:47:14;99251.31;;;7.90;100.00
4398;BME280;2213;49.720;7.296;2023-02-03T07:49:44;99256.38;;;7.91;100.00
4398;BME280;2213;49.720;7.296;2023-02-03T07:52:15;99261.47;;;7.93;100.00
4398;BME280;2213;49.720;7.296;2023-02-03T07:54:48;99262.81;;;7.97;100.00
4398;BME280;2213;49.720;7.296;2023-02-03T07:57:16;99254.47;;;7.93;100.00
4398;BME280;2213;49.720;7.296;2023-02-03T07:59:45;99257.06;;;7.93;100.00
4398;BME280;2213;49.720;7.296;2023-02-03T08:02:14;99258.03;;;7.92;100.00
4398;BME280;2213;49.720;7.296;2023-02-03T08:04:45;99255.31;;;7.94;100.00
4398;BME280;2213;49.720;7.296;2023-02-03T08:07:15;99257.34;;;8.00;100.00
4398;BME280;2213;49.720;7.296;2023-02-03T08:09:46;99256.50;;;7.99;100.00
4398;BME280;2213;49.720;7.296;2023-02-03T08:12:15;99256.38;;;8.01;100.00
4398;BME280;2213;49.720;7.296;2023-02-03T08:14:46;99265.16;;;8.00;100.00
4398;BME280;2213;49.720;7.296;2023-02-03T08:17:16;99247.03;;;7.98;100.00
4398;BME280;2213;49.720;7.296;2023-02-03T08:19:45;99256.50;;;7.99;100.00
4398;BME280;2213;49.720;7.296;2023-02-03T08:22:16;99253.78;;;8.01;100.00
4398;BME280;2213;49.720;7.296;2023-02-03T08:24:48;99259.94;;;8.00;100.00
4398;BME280;2213;49.720;7.296;2023-02-03T08:27:20;99264.31;;;7.99;100.00
4398;BME280;2213;49.720;7.296;2023-02-03T08:29:52;99261.59;;;8.01;100.00
4398;BME280;2213;49.720;7.296;2023-02-03T08:32:22;99275.28;;;8.03;100.00
4398;BME280;2213;49.720;7.296;2023-02-03T08:34:53;99278.84;;;8.02;100.00
4398;BME280;2213;49.720;7.296;2023-02-03T08:37:24;99280.50;;;8.03;100.00
4398;BME280;2213;49.720;7.296;2023-02-03T08:39:54;99295.56;;;7.99;100.00
4398;BME280;2213;49.720;7.296;2023-02-03T08:42:23;99281.19;;;8.05;100.00
4398;BME280;2213;49.720;7.296;2023-02-03T08:44:53;99284.59;;;8.05;100.00
4398;BME280;2213;49.720;7.296;2023-02-03T08:47:24;99273.09;;;8.08;100.00
4398;BME280;2213;49.720;7.296;2023-02-03T08:49:53;99285.28;;;8.07;100.00
4398;BME280;2213;49.720;7.296;2023-02-03T08:52:25;99278.84;;;8.12;100.00
4398;BME280;2213;49.720;7.296;2023-02-03T08:54:54;99264.03;;;8.12;100.00
4398;BME280;2213;49.720;7.296;2023-02-03T08:57:24;99280.34;;;8.14;100.00
4398;BME280;2213;49.720;7.296;2023-02-03T08:59:54;99275.13;;;8.14;100.00
4398;BME280;2213;49.720;7.296;2023-02-03T09:02:23;99268.81;;;8.17;100.00
4398;BME280;2213;49.720;7.296;2023-02-03T09:04:52;99276.34;;;8.20;100.00
4398;BME280;2213;49.720;7.296;2023-02-03T09:07:24;99274.41;;;8.22;100.00
4398;BME280;2213;49.720;7.296;2023-02-03T09:09:52;99259.22;;;8.17;100.00
4398;BME280;2213;49.720;7.296;2023-02-03T09:12:22;99248.38;;;8.22;100.00
4398;BME280;2213;49.720;7.296;2023-02-03T09:14:51;99247.53;;;8.21;100.00
4398;BME280;2213;49.720;7.296;2023-02-03T09:17:22;99254.13;;;8.25;100.00
4398;BME280;2213;49.720;7.296;2023-02-03T09:19:53;99257.38;;;8.27;100.00
4398;BME280;2213;49.720;7.296;2023-02-03T09:22:24;99262.59;;;8.27;100.00
4398;BME280;2213;49.720;7.296;2023-02-03T09:24:53;99267.81;;;8.27;100.00
4398;BME280;2213;49.720;7.296;2023-02-03T09:27:23;99266.88;;;8.28;100.00
4398;BME280;2213;49.720;7.296;2023-02-03T09:29:52;99290.34;;;8.28;100.00
4398;BME280;2213;49.720;7.296;2023-02-03T09:32:22;99292.00;;;8.29;100.00
4398;BME280;2213;49.720;7.296;2023-02-03T09:34:51;99273.19;;;8.35;100.00
4398;BME280;2213;49.720;7.296;2023-02-03T09:37:24;99283.19;;;8.30;100.00
4398;BME280;2213;49.720;7.296;2023-02-03T09:39:54;99276.34;;;8.29;100.00
4398;BME280;2213;49.720;7.296;2023-02-03T09:42:52;99262.06;;;8.33;100.00
4398;BME280;2213;49.720;7.296;2023-02-03T09:45:26;99233.94;;;8.37;100.00
4398;BME280;2213;49.720;7.296;2023-02-03T09:48:02;99232.16;;;8.37;100.00
4398;BME280;2213;49.720;7.296;2023-02-03T09:50:36;99240.50;;;8.41;100.00
4398;BME280;2213;49.720;7.296;2023-02-03T09:53:24;99235.53;;;8.47;100.00
4398;BME280;2213;49.720;7.296;2023-02-03T09:55:56;99237.72;;;8.52;100.00
4398;BME280;2213;49.720;7.296;2023-02-03T09:58:32;99233.69;;;8.57;100.00
4398;BME280;2213;49.720;7.296;2023-02-03T10:01:07;99244.94;;;8.58;100.00
4398;BME280;2213;49.720;7.296;2023-02-03T10:03:46;99233.44;;;8.61;100.00
4398;BME280;2213;49.720;7.296;2023-02-03T10:06:30;99238.09;;;8.57;100.00
4398;BME280;2213;49.720;7.296;2023-02-03T10:09:19;99237.13;;;8.58;100.00
4398;BME280;2213;49.720;7.296;2023-02-03T10:12:33;99237.00;;;8.59;100.00
4398;BME280;2213;49.720;7.296;2023-02-03T10:15:55;99243.03;;;8.60;100.00
4398;BME280;2213;49.720;7.296;2023-02-03T10:18:34;99243.84;;;8.61;100.00
4398;BME280;2213;49.720;7.296;2023-02-03T10:21:13;99260.06;;;8.54;100.00
4398;BME280;2213;49.720;7.296;2023-02-03T10:23:47;99258.69;;;8.60;100.00
4398;BME280;2213;49.720;7.296;2023-02-03T10:26:24;99250.22;;;8.48;100.00
4398;BME280;2213;49.720;7.296;2023-02-03T10:28:56;99252.16;;;8.46;100.00
4398;BME280;2213;49.720;7.296;2023-02-03T10:31:31;99254.47;;;8.49;100.00
4398;BME280;2213;49.720;7.296;2023-02-03T10:34:10;99251.16;;;8.47;100.00
4398;BME280;2213;49.720;7.296;2023-02-03T10:36:53;99255.13;;;8.51;100.00
4398;BME280;2213;49.720;7.296;2023-02-03T10:39:32;99241.72;;;8.46;100.00
4398;BME280;2213;49.720;7.296;2023-02-03T10:42:07;99235.97;;;8.43;100.00
4398;BME280;2213;49.720;7.296;2023-02-03T10:44:42;99231.59;;;8.43;100.00
4398;BME280;2213;49.720;7.296;2023-02-03T10:47:26;99220.03;;;8.46;100.00
4398;BME280;2213;49.720;7.296;2023-02-03T10:50:02;99209.47;;;8.47;100.00
4398;BME280;2213;49.720;7.296;2023-02-03T10:52:34;99207.09;;;8.54;100.00
4398;BME280;2213;49.720;7.296;2023-02-03T10:55:07;99206.00;;;8.56;100.00
4398;BME280;2213;49.720;7.296;2023-02-03T10:57:42;99210.69;;;8.53;100.00
4398;BME280;2213;49.720;7.296;2023-02-03T11:00:26;99218.34;;;8.54;100.00
4398;BME280;2213;49.720;7.296;2023-02-03T11:03:02;99223.00;;;8.61;100.00
4398;BME280;2213;49.720;7.296;2023-02-03T11:05:33;99201.31;;;8.60;100.00
4398;BME280;2213;49.720;7.296;2023-02-03T11:08:04;99195.56;;;8.56;100.00
4398;BME280;2213;49.720;7.296;2023-02-03T11:10:42;99200.50;;;8.59;100.00
4398;BME280;2213;49.720;7.296;2023-02-03T11:13:19;99201.69;;;8.65;100.00
4398;BME280;2213;49.720;7.296;2023-02-03T11:15:58;99200.84;;;8.65;100.00
4398;BME280;2213;49.720;7.296;2023-02-03T11:18:46;99213.63;;;8.68;100.00
4398;BME280;2213;49.720;7.296;2023-02-03T11:21:23;99229.28;;;8.68;100.00
4398;BME280;2213;49.720;7.296;2023-02-03T11:24:01;99232.84;;;8.67;100.00
4398;BME280;2213;49.720;7.296;2023-02-03T11:26:36;99227.31;;;8.70;100.00
4398;BME280;2213;49.720;7.296;2023-02-03T11:29:18;99227.75;;;8.65;100.00
4398;BME280;2213;49.720;7.296;2023-02-03T11:31:53;99230.66;;;8.62;100.00
4398;BME280;2213;49.720;7.296;2023-02-03T11:34:28;99221.44;;;8.68;100.00
4398;BME280;2213;49.720;7.296;2023-02-03T11:37:25;99227.63;;;8.67;100.00
4398;BME280;2213;49.720;7.296;2023-02-03T11:39:56;99230.22;;;8.67;100.00
4398;BME280;2213;49.720;7.296;2023-02-03T11:42:44;99232.69;;;8.68;100.00
4398;BME280;2213;49.720;7.296;2023-02-03T11:45:24;99232.53;;;8.70;100.00
4398;BME280;2213;49.720;7.296;2023-02-03T11:47:56;99220.47;;;8.69;100.00
4398;BME280;2213;49.720;7.296;2023-02-03T11:50:31;99248.19;;;8.70;100.00
4398;BME280;2213;49.720;7.296;2023-02-03T11:53:23;99253.25;;;8.71;100.00
4398;BME280;2213;49.720;7.296;2023-02-03T11:56:23;99245.59;;;8.70;100.00
4398;BME280;2213;49.720;7.296;2023-02-03T11:59:45;99254.38;;;8.69;100.00
4398;BME280;2213;49.720;7.296;2023-02-03T12:02:53;99257.78;;;8.69;100.00
4398;BME280;2213;49.720;7.296;2023-02-03T12:06:07;99244.91;;;8.68;100.00
4398;BME280;2213;49.720;7.296;2023-02-03T12:08:58;99238.19;;;8.65;100.00
4398;BME280;2213;49.720;7.296;2023-02-03T12:11:54;99233.78;;;8.66;100.00
4398;BME280;2213;49.720;7.296;2023-02-03T12:14:48;99223.53;;;8.64;100.00
4398;BME280;2213;49.720;7.296;2023-02-03T12:17:48;99230.22;;;8.67;100.00
4398;BME280;2213;49.720;7.296;2023-02-03T12:20:46;99216.66;;;8.63;100.00
4398;BME280;2213;49.720;7.296;2023-02-03T12:23:35;99226.16;;;8.54;100.00
4398;BME280;2213;49.720;7.296;2023-02-03T12:26:19;99226.56;;;8.59;100.00
4398;BME280;2213;49.720;7.296;2023-02-03T12:29:03;99225.34;;;8.54;100.00
4398;BME280;2213;49.720;7.296;2023-02-03T12:31:39;99223.56;;;8.54;100.00
4398;BME280;2213;49.720;7.296;2023-02-03T12:34:21;99213.28;;;8.53;100.00
4398;BME280;2213;49.720;7.296;2023-02-03T12:36:57;99223.56;;;8.54;100.00
4398;BME280;2213;49.720;7.296;2023-02-03T12:39:35;99221.66;;;8.56;100.00
4398;BME280;2213;49.720;7.296;2023-02-03T12:42:17;99213.22;;;8.63;100.00
4398;BME280;2213;49.720;7.296;2023-02-03T12:44:56;99213.22;;;8.63;100.00
4398;BME280;2213;49.720;7.296;2023-02-03T12:47:34;99201.69;;;8.65;100.00
4398;BME280;2213;49.720;7.296;2023-02-03T12:50:16;99188.81;;;8.64;100.00
4398;BME280;2213;49.720;7.296;2023-02-03T12:52:55;99175.47;;;8.67;100.00
4398;BME280;2213;49.720;7.296;2023-02-03T12:55:34;99182.34;;;8.68;100.00
4398;BME280;2213;49.720;7.296;2023-02-03T12:58:10;99180.69;;;8.67;100.00
4398;BME280;2213;49.720;7.296;2023-02-03T13:00:45;99185.22;;;8.65;100.00
4398;BME280;2213;49.720;7.296;2023-02-03T13:03:23;99182.34;;;8.68;100.00
4398;BME280;2213;49.720;7.296;2023-02-03T13:06:05;99183.97;;;8.69;100.00
4398;BME280;2213;49.720;7.296;2023-02-03T13:08:45;99189.03;;;8.70;100.00
4398;BME280;2213;49.720;7.296;2023-02-03T13:11:23;99180.28;;;8.62;100.00
4398;BME280;2213;49.720;7.296;2023-02-03T13:14:02;99175.47;;;8.67;100.00
4398;BME280;2213;49.720;7.296;2023-02-03T13:16:38;99182.47;;;8.66;100.00
4398;BME280;2213;49.720;7.296;2023-02-03T13:19:17;99182.56;;;8.74;100.00
4398;BME280;2213;49.720;7.296;2023-02-03T13:21:50;99185.19;;;8.74;100.00
4398;BME280;2213;49.720;7.296;2023-02-03T13:24:24;99175.41;;;8.76;100.00
4398;BME280;2213;49.720;7.296;2023-02-03T13:27:36;99181.75;;;8.74;100.00
4398;BME280;2213;49.720;7.296;2023-02-03T13:30:28;99178.16;;;8.75;100.00
4398;BME280;2213;49.720;7.296;2023-02-03T13:34:05;99174.28;;;8.79;100.00
4398;BME280;2213;49.720;7.296;2023-02-03T13:37:15;99182.94;;;8.79;100.00
4398;BME280;2213;49.720;7.296;2023-02-03T13:40:13;99169.91;;;8.79;100.00
4398;BME280;2213;49.720;7.296;2023-02-03T13:42:52;99175.94;;;8.80;100.00
4398;BME280;2213;49.720;7.296;2023-02-03T13:45:29;99162.75;;;8.81;100.00
4398;BME280;2213;49.720;7.296;2023-02-03T13:48:13;99151.22;;;8.84;100.00
4398;BME280;2213;49.720;7.296;2023-02-03T13:50:46;99141.72;;;8.83;100.00
4398;BME280;2213;49.720;7.296;2023-02-03T13:53:22;99136.38;;;8.84;100.00
4398;BME280;2213;49.720;7.296;2023-02-03T13:55:55;99145.56;;;8.88;100.00
4398;BME280;2213;49.720;7.296;2023-02-03T13:58:29;99132.34;;;8.90;100.00
4398;BME280;2213;49.720;7.296;2023-02-03T14:01:35;99154.84;;;8.91;100.00
4398;BME280;2213;49.720;7.296;2023-02-03T14:04:06;99160.22;;;8.89;100.00
4398;BME280;2213;49.720;7.296;2023-02-03T14:06:57;99143.47;;;8.92;100.00
4398;BME280;2213;49.720;7.296;2023-02-03T14:09:45;99147.56;;;8.94;100.00
4398;BME280;2213;49.720;7.296;2023-02-03T14:15:34;99158.94;;;8.93;100.00